createdAt,value
2018-09-08T00:03:09.995Z,53.40
2018-09-08T00:08:13.600Z,53.50
2018-09-08T00:13:29.790Z,52.10
2018-09-08T00:18:38.705Z,52.20
2018-09-08T00:23:47.591Z,52.30
2018-09-08T00:28:58.198Z,51.70
2018-09-08T00:34:01.841Z,52.50
2018-09-08T00:39:07.499Z,52.10
2018-09-08T00:44:11.529Z,52.40
2018-09-08T00:49:15.172Z,52.20
2018-09-08T00:54:19.087Z,53.90
2018-09-08T00:59:22.904Z,54.50
2018-09-08T01:04:26.534Z,54.50
2018-09-08T01:09:30.672Z,54.40
2018-09-08T01:14:34.258Z,54.10
2018-09-08T01:19:38.418Z,54.60
2018-09-08T01:24:42.072Z,54.90
2018-09-08T01:29:45.898Z,55.10
2018-09-08T01:34:50.081Z,55.20
2018-09-08T01:39:53.900Z,55.50
2018-09-08T01:44:57.488Z,55.70
2018-09-08T01:50:01.193Z,55.60
2018-09-08T01:55:07.368Z,55.50
2018-09-08T02:00:13.089Z,56.00
2018-09-08T02:05:16.733Z,56.30
2018-09-08T02:10:28.316Z,56.10
2018-09-08T02:15:32.048Z,56.50
2018-09-08T02:20:35.809Z,56.90
2018-09-08T02:25:39.553Z,56.90
2018-09-08T02:30:43.239Z,56.90
2018-09-08T02:35:46.880Z,57.10
2018-09-08T02:40:50.587Z,57.50
2018-09-08T02:45:54.291Z,57.40
2018-09-08T02:50:56.715Z,57.90
2018-09-08T02:55:59.129Z,57.80
2018-09-08T03:01:01.585Z,58.10
2018-09-08T03:06:04.675Z,58.30
2018-09-08T03:11:07.592Z,58.70
2018-09-08T03:16:10.428Z,58.40
2018-09-08T03:21:12.855Z,58.60
2018-09-08T03:26:15.390Z,58.50
2018-09-08T03:31:18.048Z,58.50
2018-09-08T03:36:20.472Z,58.70
2018-09-08T03:41:22.992Z,58.70
2018-09-08T03:46:25.701Z,58.90
2018-09-08T03:51:29.663Z,59.10
2018-09-08T03:56:32.563Z,59.20
2018-09-08T04:01:38.649Z,59.50
2018-09-08T04:07:01.391Z,59.40
2018-09-08T04:12:05.029Z,59.70
2018-09-08T04:17:08.633Z,59.80
2018-09-08T04:22:12.861Z,59.90
2018-09-08T04:27:16.505Z,59.90
2018-09-08T04:32:20.179Z,59.70
2018-09-08T04:37:26.163Z,59.80
2018-09-08T04:42:29.745Z,59.80
2018-09-08T04:47:33.333Z,59.90
2018-09-08T04:52:38.809Z,59.50
2018-09-08T04:57:42.605Z,59.60
2018-09-08T05:02:46.251Z,59.70
2018-09-08T05:09:57.733Z,59.80
2018-09-08T05:15:01.501Z,60.00
2018-09-08T05:20:05.703Z,61.90
2018-09-08T05:25:09.404Z,61.00
2018-09-08T05:30:13.396Z,61.00
2018-09-08T05:35:16.975Z,60.70
2018-09-08T05:40:20.587Z,60.90
2018-09-08T05:45:24.175Z,61.00
2018-09-08T05:50:28.160Z,61.10
2018-09-08T05:55:32.232Z,61.20
2018-09-08T06:00:39.950Z,61.50
2018-09-08T06:05:44.370Z,61.90
2018-09-08T06:10:47.919Z,61.90
2018-09-08T06:15:55.804Z,62.00
2018-09-08T06:20:59.548Z,61.40
2018-09-08T06:26:03.667Z,61.50
2018-09-08T06:31:07.511Z,61.90
2018-09-08T06:36:11.097Z,61.70
2018-09-08T06:41:14.884Z,61.40
2018-09-08T06:46:18.540Z,60.30
2018-09-08T06:51:22.979Z,59.40
2018-09-08T06:56:26.874Z,58.00
2018-09-08T07:01:30.508Z,57.50
2018-09-08T07:06:34.264Z,56.80
2018-09-08T07:11:38.236Z,56.70
2018-09-08T07:16:41.976Z,56.20
2018-09-08T07:21:47.601Z,56.50
2018-09-08T07:26:51.511Z,55.90
2018-09-08T07:32:01.877Z,54.90
2018-09-08T07:37:06.168Z,54.40
2018-09-08T07:42:16.673Z,54.10
2018-09-08T07:47:30.347Z,53.80
2018-09-08T07:52:44.956Z,52.80
2018-09-08T07:57:48.785Z,52.10
2018-09-08T08:02:52.420Z,52.00
2018-09-08T08:07:57.874Z,51.70
2018-09-08T08:13:12.523Z,51.80
2018-09-08T08:18:16.343Z,51.20
2018-09-08T08:23:20.049Z,50.60
2018-09-08T08:28:23.605Z,46.60
2018-09-08T08:33:27.554Z,38.80
2018-09-08T08:38:31.363Z,34.70
2018-09-08T08:43:35.822Z,31.10
2018-09-08T08:48:40.278Z,30.90
2018-09-08T08:53:55.771Z,29.80
2018-09-08T08:58:59.786Z,29.80
2018-09-08T09:04:03.420Z,30.50
2018-09-08T09:09:10.665Z,33.20
2018-09-08T09:14:15.032Z,36.30
2018-09-08T09:19:32.019Z,39.00
2018-09-08T09:25:01.456Z,40.40
2018-09-08T09:30:05.319Z,42.30
2018-09-08T09:35:10.581Z,45.50
2018-09-08T09:40:15.652Z,45.40
2018-09-08T09:45:19.324Z,46.30
2018-09-08T09:50:23.317Z,47.20
2018-09-08T09:55:27.692Z,47.20
2018-09-08T10:00:36.542Z,47.20
2018-09-08T10:05:40.365Z,48.00
2018-09-08T10:10:50.846Z,48.70
2018-09-08T10:15:54.571Z,48.80
2018-09-08T10:20:58.297Z,48.20
2018-09-08T10:26:02.458Z,47.90
2018-09-08T10:31:06.102Z,46.80
2018-09-08T10:36:09.722Z,45.60
2018-09-08T10:41:13.535Z,44.90
2018-09-08T10:46:17.489Z,43.90
2018-09-08T10:51:34.625Z,44.60
2018-09-08T10:56:38.980Z,43.40
2018-09-08T11:01:43.633Z,43.70
2018-09-08T11:06:47.679Z,44.40
2018-09-08T11:11:51.336Z,42.80
2018-09-08T11:16:55.719Z,43.70
2018-09-08T11:22:00.351Z,42.60
2018-09-08T11:27:04.127Z,42.00
2018-09-08T11:32:07.896Z,42.50
2018-09-08T11:37:11.579Z,42.10
2018-09-08T11:42:15.235Z,41.80
2018-09-08T11:47:18.912Z,41.50
2018-09-08T11:52:22.539Z,40.70
2018-09-08T11:57:26.427Z,40.20
2018-09-08T12:02:30.993Z,40.10
2018-09-08T12:07:34.736Z,40.30
2018-09-08T12:12:38.379Z,39.30
2018-09-08T12:17:43.201Z,38.70
2018-09-08T12:22:47.029Z,38.50
2018-09-08T12:27:51.278Z,38.20
2018-09-08T12:37:58.144Z,35.90
2018-09-08T12:43:01.832Z,36.50
2018-09-08T12:48:06.420Z,38.50
2018-09-08T12:53:10.594Z,32.30
2018-09-08T12:58:15.451Z,34.00
2018-09-08T13:08:22.588Z,31.20
2018-09-08T13:18:29.521Z,31.90
2018-09-08T13:23:34.139Z,30.90
2018-09-08T13:28:39.370Z,29.30
2018-09-08T13:33:43.696Z,30.10
2018-09-08T13:38:47.321Z,29.80
2018-09-08T13:43:50.975Z,28.20
2018-09-08T13:49:00.870Z,27.50
2018-09-08T13:54:05.209Z,27.70
2018-09-08T13:59:09.403Z,28.50
2018-09-08T14:04:13.286Z,27.90
2018-09-08T14:09:16.972Z,28.40
2018-09-08T14:14:20.634Z,28.80
2018-09-08T14:19:24.276Z,28.10
2018-09-08T14:24:28.700Z,28.80
2018-09-08T14:29:34.127Z,27.10
2018-09-08T14:34:37.935Z,27.60
2018-09-08T14:39:42.002Z,26.10
2018-09-08T14:44:46.431Z,27.00
2018-09-08T14:49:50.053Z,27.20
2018-09-08T14:54:54.009Z,27.50
2018-09-08T14:59:57.864Z,25.90
2018-09-08T15:05:07.796Z,26.50
2018-09-08T15:10:11.399Z,25.50
2018-09-08T15:15:15.244Z,25.10
2018-09-08T15:20:18.842Z,24.60
2018-09-08T15:25:22.448Z,23.40
2018-09-08T15:30:26.590Z,23.60
2018-09-08T15:35:30.247Z,24.60
2018-09-08T15:40:35.717Z,24.50
2018-09-08T15:45:39.556Z,25.10
2018-09-08T15:50:43.187Z,24.80
2018-09-08T15:55:46.876Z,24.70
2018-09-08T16:00:50.982Z,26.10
2018-09-08T16:05:54.660Z,26.00
2018-09-08T16:11:01.007Z,26.50
2018-09-08T16:16:04.665Z,25.50
2018-09-08T16:21:09.042Z,25.50
2018-09-08T16:26:13.233Z,25.50
2018-09-08T16:31:16.875Z,25.20
2018-09-08T16:36:20.515Z,25.30
2018-09-08T16:41:24.100Z,25.00
2018-09-08T16:46:27.826Z,24.90
2018-09-08T16:51:31.669Z,26.20
2018-09-08T16:56:40.408Z,25.70
2018-09-08T17:01:44.050Z,25.60
2018-09-08T17:06:47.793Z,25.60
2018-09-08T17:11:55.389Z,26.10
2018-09-08T17:17:00.292Z,27.90
2018-09-08T17:22:03.993Z,28.30
2018-09-08T17:27:09.987Z,28.40
2018-09-08T17:32:13.733Z,28.10
2018-09-08T17:37:17.818Z,28.40
2018-09-08T17:42:21.555Z,30.40
2018-09-08T17:47:25.270Z,33.60
2018-09-08T17:52:29.562Z,33.50
2018-09-08T17:57:33.315Z,34.80
2018-09-08T18:02:37.072Z,35.50
2018-09-08T18:07:42.620Z,35.40
2018-09-08T18:12:46.332Z,35.40
2018-09-08T18:17:50.429Z,35.70
2018-09-08T18:22:55.215Z,37.90
2018-09-08T18:27:59.132Z,38.50
2018-09-08T18:33:02.991Z,37.80
2018-09-08T18:38:06.629Z,38.30
2018-09-08T18:43:10.220Z,39.80
2018-09-08T18:48:13.914Z,40.50
2018-09-08T18:53:18.564Z,40.90
2018-09-08T18:58:22.231Z,41.80
2018-09-08T19:03:26.204Z,41.80
2018-09-08T19:08:49.177Z,42.70
2018-09-08T19:13:53.062Z,43.00
2018-09-08T19:18:57.603Z,43.10
2018-09-08T19:24:07.415Z,44.00
2018-09-08T19:29:16.395Z,43.60
2018-09-08T19:34:20.266Z,44.50
2018-09-08T19:39:24.109Z,45.20
2018-09-08T19:44:27.849Z,45.40
2018-09-08T19:49:31.479Z,45.20
2018-09-08T19:54:35.225Z,46.00
2018-09-08T19:59:38.850Z,46.00
2018-09-08T20:04:43.598Z,46.50
2018-09-08T20:09:47.247Z,46.70
2018-09-08T20:14:51.393Z,47.00
2018-09-08T20:19:55.117Z,47.20
2018-09-08T20:24:58.647Z,47.80
2018-09-08T20:30:02.308Z,48.60
2018-09-08T20:35:06.573Z,47.50
2018-09-08T20:40:10.120Z,48.10
2018-09-08T20:45:13.945Z,48.70
2018-09-08T20:50:18.562Z,48.40
2018-09-08T20:55:23.061Z,48.70
2018-09-08T21:00:26.683Z,49.50
2018-09-08T21:05:31.322Z,49.60
2018-09-08T21:10:35.234Z,49.90
2018-09-08T21:15:38.806Z,50.40
2018-09-08T21:20:42.430Z,50.50
2018-09-08T21:25:46.330Z,50.90
2018-09-08T21:30:50.128Z,51.30
2018-09-08T21:35:55.611Z,51.60
2018-09-08T21:40:59.563Z,52.00
2018-09-08T21:46:03.156Z,52.20
2018-09-08T21:51:08.398Z,52.40
2018-09-08T21:56:12.260Z,52.50
2018-09-08T22:01:21.709Z,52.90
2018-09-08T22:06:26.917Z,53.20
2018-09-08T22:11:36.544Z,54.00
2018-09-08T22:16:40.905Z,54.00
2018-09-08T22:21:46.383Z,54.30
2018-09-08T22:26:50.306Z,54.30
2018-09-08T22:31:53.948Z,54.70
2018-09-08T22:36:57.702Z,54.90
2018-09-08T22:42:01.929Z,55.00
2018-09-08T22:47:05.519Z,55.10
2018-09-08T22:52:09.130Z,55.60
2018-09-08T22:57:13.169Z,55.70
2018-09-08T23:02:16.803Z,55.90
2018-09-08T23:07:20.958Z,56.30
2018-09-08T23:12:24.839Z,56.80
2018-09-08T23:17:28.526Z,56.80
2018-09-08T23:22:32.123Z,56.90
2018-09-08T23:27:35.737Z,56.90
2018-09-08T23:32:39.543Z,57.10
2018-09-08T23:37:43.163Z,57.40
2018-09-08T23:47:57.165Z,58.10
2018-09-08T23:53:00.762Z,58.30
2018-09-08T23:58:04.360Z,59.00
